Time;durP1;ratioP1;P1;durP2;ratioP2;P2;SDS_P1;SDS_P2;PMS_P1;PMS_P2;Temp;Humidity;BMP_temperature;BMP_pressure;BME280_temperature;BME280_humidity;BME280_pressure;Samples;Min_cycle;Max_cycle;Signal;HPM_P1;HPM_P2
2022/11/23 00:01:37;;;;;;;3.13;0.75;;;;;;;;;;5127772;27;20062;-76
2022/11/23 00:04:09;;;;;;;0.52;0.32;;;;;;;;;;5128795;27;20047;-72
2022/11/23 00:06:41;;;;;;;0.43;0.43;;;;;;;;;;5128373;27;20595;-75
2022/11/23 00:09:11;;;;;;;2.22;0.60;;;;;;;;;;5127964;27;20047;-75
2022/11/23 00:11:41;;;;;;;2.42;0.65;;;;;;;;;;5127403;27;20046;-77
2022/11/23 00:14:10;;;;;;;0.50;0.50;;;;;;;;;;5124897;27;20382;-76
2022/11/23 00:16:40;;;;;;;2.75;0.80;;;;;;;;;;5127882;27;20420;-72
2022/11/23 00:19:10;;;;;;;2.15;0.65;;;;;;;;;;5127743;27;20051;-73
2022/11/23 00:21:40;;;;;;;2.10;0.90;;;;;;;;;;5127915;27;20047;-74
2022/11/23 00:24:12;;;;;;;3.70;0.50;;;;;;;;;;5127363;27;20533;-75
2022/11/23 00:26:42;;;;;;;3.10;0.50;;;;;;;;;;5127772;27;20039;-73
2022/11/23 00:29:11;;;;;;;0.45;0.45;;;;;;;;;;5128181;27;20047;-72
2022/11/23 00:31:41;;;;;;;3.58;0.60;;;;;;;;;;5127858;27;20043;-73
2022/11/23 00:34:11;;;;;;;0.65;0.65;;;;;;;;;;5125363;27;20058;-75
2022/11/23 00:36:41;;;;;;;6.00;0.90;;;;;;;;;;5126104;27;20043;-76
2022/11/23 00:39:11;;;;;;;2.88;0.60;;;;;;;;;;5124791;27;20055;-76
2022/11/23 00:41:41;;;;;;;3.67;0.70;;;;;;;;;;5127335;27;20039;-74
2022/11/23 00:44:11;;;;;;;1.75;0.95;;;;;;;;;;5127779;27;20050;-73
2022/11/23 00:46:41;;;;;;;2.92;1.00;;;;;;;;;;5128973;27;20039;-72
2022/11/23 00:49:10;;;;;;;5.35;1.00;;;;;;;;;;5133976;27;20054;-73
2022/11/23 00:51:40;;;;;;;1.45;0.73;;;;;;;;;;5129064;27;20074;-75
2022/11/23 00:54:10;;;;;;;2.30;1.15;;;;;;;;;;5126242;27;20065;-75
2022/11/23 00:56:39;;;;;;;1.45;1.10;;;;;;;;;;5127276;27;20039;-75
2022/11/23 00:59:09;;;;;;;1.35;1.10;;;;;;;;;;5127660;27;20050;-74
2022/11/23 01:01:39;;;;;;;12.10;1.48;;;;;;;;;;5124454;27;20047;-76
2022/11/23 01:04:09;;;;;;;19.30;1.60;;;;;;;;;;5122744;27;20062;-75
2022/11/23 01:06:40;;;;;;;17.40;1.50;;;;;;;;;;5124842;27;20531;-75
2022/11/23 01:09:19;;;;;;;36.28;1.80;;;;;;;;;;5123615;27;20050;-75
2022/11/23 01:11:50;;;;;;;11.15;1.20;;;;;;;;;;5125355;28;20054;-76
2022/11/23 01:14:24;;;;;;;30.10;2.15;;;;;;;;;;5125344;28;20311;-74
2022/11/23 01:16:54;;;;;;;4.93;1.00;;;;;;;;;;5125721;28;20046;-74
2022/11/23 01:19:24;;;;;;;1.17;0.98;;;;;;;;;;5126500;28;20505;-74
2022/11/23 01:21:54;;;;;;;1.88;0.77;;;;;;;;;;5127109;28;20039;-75
2022/11/23 01:24:25;;;;;;;1.20;1.10;;;;;;;;;;5125195;28;20433;-75
2022/11/23 01:26:55;;;;;;;2.00;0.82;;;;;;;;;;5126604;28;20048;-76
2022/11/23 01:29:26;;;;;;;1.00;0.82;;;;;;;;;;5126280;27;20074;-74
2022/11/23 01:32:00;;;;;;;4.00;0.93;;;;;;;;;;5125066;28;20070;-77
2022/11/23 01:34:30;;;;;;;1.63;0.90;;;;;;;;;;5126452;28;20039;-74
2022/11/23 01:37:00;;;;;;;1.40;0.70;;;;;;;;;;5126153;28;20054;-76
2022/11/23 01:39:30;;;;;;;1.23;0.60;;;;;;;;;;5127420;28;20051;-76
2022/11/23 01:42:00;;;;;;;1.98;0.70;;;;;;;;;;5125674;28;20055;-73
2022/11/23 01:44:33;;;;;;;1.25;0.80;;;;;;;;;;5127063;28;20036;-77
2022/11/23 01:47:06;;;;;;;1.20;0.70;;;;;;;;;;5126656;28;20066;-75
2022/11/23 01:49:41;;;;;;;0.82;0.82;;;;;;;;;;5124773;28;20047;-72
2022/11/23 01:52:18;;;;;;;1.10;0.80;;;;;;;;;;5129282;27;20405;-76
2022/11/23 01:54:54;;;;;;;1.27;1.00;;;;;;;;;;5131052;27;20039;-74
2022/11/23 01:57:30;;;;;;;1.23;0.95;;;;;;;;;;5130587;27;20039;-75
2022/11/23 02:00:01;;;;;;;8.05;1.20;;;;;;;;;;5129344;27;20046;-76
2022/11/23 02:02:50;;;;;;;1.67;0.90;;;;;;;;;;5134774;27;20070;-75
2022/11/23 02:05:23;;;;;;;1.85;1.05;;;;;;;;;;5128845;27;20058;-75
2022/11/23 02:07:53;;;;;;;1.20;1.02;;;;;;;;;;5130510;27;20046;-74
2022/11/23 02:10:25;;;;;;;5.00;1.27;;;;;;;;;;5130780;27;20047;-75
2022/11/23 02:13:02;;;;;;;1.65;1.13;;;;;;;;;;5130670;27;20043;-76
2022/11/23 02:15:36;;;;;;;2.15;1.10;;;;;;;;;;5129350;27;20046;-74
2022/11/23 02:18:21;;;;;;;2.40;1.02;;;;;;;;;;5129053;27;20051;-75
2022/11/23 02:20:53;;;;;;;6.20;1.17;;;;;;;;;;5130281;27;20543;-75
2022/11/23 02:23:23;;;;;;;3.28;1.25;;;;;;;;;;5129224;27;20047;-76
2022/11/23 02:26:18;;;;;;;1.92;1.10;;;;;;;;;;5129678;27;20082;-74
2022/11/23 02:29:07;;;;;;;2.08;0.93;;;;;;;;;;5130305;27;20520;-73
2022/11/23 02:31:37;;;;;;;3.80;1.13;;;;;;;;;;5129837;27;20047;-74
2022/11/23 02:34:06;;;;;;;1.60;1.20;;;;;;;;;;5128240;27;20246;-76
2022/11/23 02:36:43;;;;;;;2.60;1.02;;;;;;;;;;5128676;27;20055;-75
2022/11/23 02:39:37;;;;;;;4.15;1.20;;;;;;;;;;5130173;27;20417;-75
2022/11/23 02:42:07;;;;;;;6.60;1.13;;;;;;;;;;5129983;27;20097;-76
2022/11/23 02:45:00;;;;;;;2.40;1.38;;;;;;;;;;5128472;27;20055;-76
2022/11/23 02:47:29;;;;;;;1.95;1.27;;;;;;;;;;5128395;27;20051;-74
2022/11/23 02:50:01;;;;;;;4.07;1.35;;;;;;;;;;5130160;27;20436;-77
2022/11/23 02:52:31;;;;;;;0.98;0.93;;;;;;;;;;5130029;27;20051;-74
2022/11/23 02:55:01;;;;;;;4.05;1.00;;;;;;;;;;5129712;27;21006;-76
2022/11/23 02:57:30;;;;;;;3.83;1.20;;;;;;;;;;5127843;27;20425;-75
2022/11/23 03:00:00;;;;;;;1.92;1.25;;;;;;;;;;5127637;27;20051;-74
2022/11/23 03:02:30;;;;;;;3.33;1.10;;;;;;;;;;5127586;27;20047;-74
2022/11/23 03:04:59;;;;;;;3.38;1.20;;;;;;;;;;5129693;27;20398;-72
2022/11/23 03:07:29;;;;;;;5.43;1.17;;;;;;;;;;5129083;27;20050;-77
2022/11/23 03:09:59;;;;;;;3.60;1.10;;;;;;;;;;5127440;27;20066;-73
2022/11/23 03:12:30;;;;;;;3.90;1.33;;;;;;;;;;5127476;27;20043;-74
2022/11/23 03:15:00;;;;;;;4.55;1.42;;;;;;;;;;5128952;27;20425;-78
2022/11/23 03:17:31;;;;;;;2.03;1.30;;;;;;;;;;5127098;27;20050;-76
2022/11/23 03:20:02;;;;;;;2.97;1.30;;;;;;;;;;5127203;27;20066;-73
2022/11/23 03:22:38;;;;;;;1.83;1.35;;;;;;;;;;5111256;27;20050;-76
2022/11/23 03:25:10;;;;;;;3.30;1.20;;;;;;;;;;5127197;27;20051;-72
2022/11/23 03:27:40;;;;;;;3.95;1.23;;;;;;;;;;5128884;27;20043;-74
2022/11/23 03:30:10;;;;;;;3.50;1.38;;;;;;;;;;5127661;27;20065;-73
2022/11/23 03:32:41;;;;;;;1.77;1.30;;;;;;;;;;5127681;27;20058;-74
2022/11/23 03:35:11;;;;;;;1.80;1.40;;;;;;;;;;5128339;27;20043;-76
2022/11/23 03:38:10;;;;;;;4.15;1.23;;;;;;;;;;5115400;27;20444;-74
2022/11/23 03:40:47;;;;;;;3.45;1.17;;;;;;;;;;5127213;27;20047;-73
2022/11/23 03:43:23;;;;;;;2.50;1.35;;;;;;;;;;5127837;27;20043;-73
2022/11/23 03:45:53;;;;;;;5.90;1.60;;;;;;;;;;5129101;27;20055;-71
2022/11/23 03:48:23;;;;;;;2.05;1.13;;;;;;;;;;5129517;27;20051;-74
2022/11/23 03:50:53;;;;;;;4.00;1.40;;;;;;;;;;5127305;27;20043;-75
2022/11/23 03:53:23;;;;;;;3.50;1.50;;;;;;;;;;5128379;27;20068;-74
2022/11/23 03:55:56;;;;;;;5.53;1.65;;;;;;;;;;5128461;27;20047;-74
2022/11/23 03:58:29;;;;;;;3.38;1.48;;;;;;;;;;5127446;27;20420;-73
2022/11/23 04:01:01;;;;;;;1.63;1.10;;;;;;;;;;5126761;27;20078;-75
2022/11/23 04:03:32;;;;;;;3.42;1.20;;;;;;;;;;5127058;27;20055;-74
2022/11/23 04:06:10;;;;;;;2.55;1.35;;;;;;;;;;5126442;27;20047;-73
2022/11/23 04:08:56;;;;;;;2.25;1.20;;;;;;;;;;5126408;27;20061;-75
2022/11/23 04:11:47;;;;;;;3.00;1.42;;;;;;;;;;5126080;27;20051;-74
2022/11/23 04:14:19;;;;;;;4.25;1.40;;;;;;;;;;5125925;27;20047;-75
2022/11/23 04:16:49;;;;;;;5.95;1.60;;;;;;;;;;5108783;27;20066;-76
2022/11/23 04:19:21;;;;;;;3.42;1.48;;;;;;;;;;5128037;27;20051;-73
2022/11/23 04:21:51;;;;;;;3.15;1.40;;;;;;;;;;5128239;27;20051;-74
2022/11/23 04:24:22;;;;;;;5.47;1.10;;;;;;;;;;5126506;27;20058;-76
2022/11/23 04:26:54;;;;;;;2.33;1.33;;;;;;;;;;5126236;27;20050;-76
2022/11/23 04:29:25;;;;;;;4.95;1.45;;;;;;;;;;5126008;27;20425;-74
2022/11/23 04:31:55;;;;;;;3.95;1.60;;;;;;;;;;5126406;27;20551;-73
2022/11/23 04:34:24;;;;;;;1.77;1.48;;;;;;;;;;5127816;27;20486;-75
2022/11/23 04:36:54;;;;;;;2.75;1.30;;;;;;;;;;5125555;27;20437;-73
2022/11/23 04:39:31;;;;;;;4.30;1.50;;;;;;;;;;5125698;27;20058;-74
2022/11/23 04:42:40;;;;;;;1.35;1.13;;;;;;;;;;5064191;28;20052;-74
2022/11/23 04:45:10;;;;;;;1.95;1.40;;;;;;;;;;5064520;28;20067;-74
2022/11/23 04:47:40;;;;;;;4.55;1.50;;;;;;;;;;5085671;27;20051;-73
2022/11/23 04:50:14;;;;;;;5.05;1.73;;;;;;;;;;5125930;27;20516;-76
2022/11/23 04:52:49;;;;;;;6.57;1.73;;;;;;;;;;5125726;27;20626;-73
2022/11/23 04:55:24;;;;;;;4.35;1.63;;;;;;;;;;5126355;27;20050;-76
2022/11/23 04:57:58;;;;;;;3.15;1.80;;;;;;;;;;5125779;27;20055;-75
2022/11/23 05:00:31;;;;;;;2.33;1.50;;;;;;;;;;5125190;27;20051;-74
2022/11/23 05:03:03;;;;;;;4.90;1.75;;;;;;;;;;5125572;27;20055;-77
2022/11/23 05:05:40;;;;;;;3.97;1.52;;;;;;;;;;5125877;27;20058;-76
2022/11/23 05:08:10;;;;;;;1.95;1.42;;;;;;;;;;5127400;27;20807;-72
2022/11/23 05:11:09;;;;;;;3.08;1.48;;;;;;;;;;5113476;27;20055;-75
2022/11/23 05:13:40;;;;;;;2.85;1.40;;;;;;;;;;5126055;28;20051;-76
2022/11/23 05:16:10;;;;;;;5.78;1.55;;;;;;;;;;5109506;28;20055;-74
2022/11/23 05:18:40;;;;;;;6.85;1.60;;;;;;;;;;5125359;28;20061;-77
2022/11/23 05:21:11;;;;;;;4.30;1.05;;;;;;;;;;5125363;28;20058;-76
2022/11/23 05:23:41;;;;;;;1.25;1.15;;;;;;;;;;5125161;28;20047;-77
2022/11/23 05:26:11;;;;;;;1.13;0.95;;;;;;;;;;5127883;27;20043;-74
2022/11/23 05:28:41;;;;;;;23.35;1.30;;;;;;;;;;5129603;27;20058;-73
2022/11/23 05:31:14;;;;;;;6.43;1.20;;;;;;;;;;5130148;27;20054;-73
2022/11/23 05:33:46;;;;;;;11.85;1.60;;;;;;;;;;5113302;27;20478;-73
2022/11/23 05:36:24;;;;;;;0.70;0.65;;;;;;;;;;5129363;27;20054;-77
2022/11/23 05:38:55;;;;;;;2.92;0.95;;;;;;;;;;5129825;27;20058;-72
2022/11/23 05:41:30;;;;;;;1.10;0.90;;;;;;;;;;5129685;27;20054;-74
2022/11/23 05:44:05;;;;;;;2.95;1.20;;;;;;;;;;5113219;27;20039;-75
2022/11/23 05:46:34;;;;;;;1.70;0.95;;;;;;;;;;5130611;27;20047;-75
2022/11/23 05:49:05;;;;;;;2.65;1.13;;;;;;;;;;5129475;27;20429;-77
2022/11/23 05:51:37;;;;;;;1.25;1.00;;;;;;;;;;5129242;27;20047;-75
2022/11/23 05:54:09;;;;;;;1.60;1.20;;;;;;;;;;5129389;27;20047;-76
2022/11/23 05:56:43;;;;;;;5.38;2.05;;;;;;;;;;5128487;27;20062;-77
2022/11/23 05:59:20;;;;;;;3.92;1.70;;;;;;;;;;5128561;27;20043;-75
2022/11/23 06:01:56;;;;;;;2.92;1.85;;;;;;;;;;5129213;27;20058;-74
2022/11/23 06:04:30;;;;;;;3.83;1.55;;;;;;;;;;5129706;27;20055;-75
2022/11/23 06:07:00;;;;;;;3.72;2.10;;;;;;;;;;5129588;27;20047;-73
2022/11/23 06:09:39;;;;;;;4.97;1.85;;;;;;;;;;5128947;27;20047;-75
2022/11/23 06:12:12;;;;;;;3.20;1.95;;;;;;;;;;5129023;27;20058;-73
2022/11/23 06:14:42;;;;;;;8.27;1.67;;;;;;;;;;5128870;27;20077;-73
2022/11/23 06:17:15;;;;;;;1.95;1.48;;;;;;;;;;5128644;27;20043;-74
2022/11/23 06:19:50;;;;;;;3.05;1.63;;;;;;;;;;5128082;27;20058;-75
2022/11/23 06:22:20;;;;;;;2.45;1.73;;;;;;;;;;5128494;27;20051;-75
2022/11/23 06:24:59;;;;;;;3.75;1.85;;;;;;;;;;5128207;27;20047;-74
2022/11/23 06:27:37;;;;;;;2.40;1.52;;;;;;;;;;5128903;27;20051;-75
2022/11/23 06:30:16;;;;;;;5.13;1.90;;;;;;;;;;5113497;27;20054;-76
2022/11/23 06:32:47;;;;;;;3.17;1.90;;;;;;;;;;5129071;27;20051;-73
2022/11/23 06:35:19;;;;;;;3.03;1.77;;;;;;;;;;5129161;27;20066;-74
2022/11/23 06:37:50;;;;;;;5.00;2.25;;;;;;;;;;5127413;27;20054;-72
2022/11/23 06:40:20;;;;;;;8.15;2.90;;;;;;;;;;5128394;27;20054;-72
2022/11/23 06:42:56;;;;;;;9.93;2.22;;;;;;;;;;5112552;27;20047;-76
2022/11/23 06:45:38;;;;;;;4.95;2.38;;;;;;;;;;5112764;27;20070;-73
2022/11/23 06:48:13;;;;;;;;;;;;;;;;;;5128645;27;20532;-74
2022/11/23 06:50:46;;;;;;;4.95;2.40;;;;;;;;;;5127903;27;19930;-75
2022/11/23 06:53:18;;;;;;;5.30;2.58;;;;;;;;;;5128217;27;20055;-75
2022/11/23 06:55:58;;;;;;;5.07;2.40;;;;;;;;;;5128342;27;20047;-74
2022/11/23 06:58:30;;;;;;;6.22;2.90;;;;;;;;;;5127773;27;20051;-74
2022/11/23 07:01:06;;;;;;;5.63;2.70;;;;;;;;;;5128334;27;20058;-75
2022/11/23 07:03:44;;;;;;;5.00;2.58;;;;;;;;;;5128160;27;20047;-75
2022/11/23 07:06:26;;;;;;;7.88;3.03;;;;;;;;;;5127700;27;20516;-75
2022/11/23 07:09:01;;;;;;;8.98;2.88;;;;;;;;;;5128004;27;20517;-77
2022/11/23 07:11:44;;;;;;;5.75;2.95;;;;;;;;;;5127093;27;20054;-72
2022/11/23 07:14:16;;;;;;;5.82;2.78;;;;;;;;;;5127167;27;20051;-75
2022/11/23 07:16:48;;;;;;;9.35;2.90;;;;;;;;;;5128264;27;20047;-76
2022/11/23 07:19:19;;;;;;;5.70;2.75;;;;;;;;;;5127172;27;20063;-73
2022/11/23 07:21:51;;;;;;;5.85;3.08;;;;;;;;;;5127755;27;20051;-74
2022/11/23 07:24:21;;;;;;;5.25;3.05;;;;;;;;;;5128030;27;20058;-73
2022/11/23 07:26:51;;;;;;;7.20;3.40;;;;;;;;;;5126658;27;20046;-72
2022/11/23 07:29:21;;;;;;;6.25;2.95;;;;;;;;;;5127120;27;20058;-76
2022/11/23 07:31:51;;;;;;;5.57;2.45;;;;;;;;;;5127040;27;20511;-75
2022/11/23 07:34:24;;;;;;;6.47;2.38;;;;;;;;;;5127125;27;20051;-73
2022/11/23 07:36:55;;;;;;;5.50;2.60;;;;;;;;;;5128027;27;20043;-74
2022/11/23 07:39:32;;;;;;;5.25;2.22;;;;;;;;;;5126785;27;20047;-75
2022/11/23 07:42:22;;;;;;;7.10;2.83;;;;;;;;;;5128514;27;20055;-76
2022/11/23 07:45:06;;;;;;;5.13;2.53;;;;;;;;;;5128516;27;20053;-75
2022/11/23 07:47:38;;;;;;;5.80;2.38;;;;;;;;;;5127425;27;20043;-75
2022/11/23 07:50:11;;;;;;;4.32;2.40;;;;;;;;;;5127414;27;20039;-74
2022/11/23 07:52:41;;;;;;;4.03;2.20;;;;;;;;;;5128439;27;20054;-74
2022/11/23 07:55:11;;;;;;;5.15;2.40;;;;;;;;;;5128942;27;20059;-76
2022/11/23 07:57:42;;;;;;;7.78;2.90;;;;;;;;;;5127948;27;20050;-77
2022/11/23 08:00:12;;;;;;;4.85;2.50;;;;;;;;;;5128106;27;20051;-75
2022/11/23 08:02:41;;;;;;;4.60;2.72;;;;;;;;;;5109471;27;20051;-74
2022/11/23 08:05:32;;;;;;;6.03;2.55;;;;;;;;;;5128092;27;20039;-75
2022/11/23 08:08:02;;;;;;;5.68;2.67;;;;;;;;;;5128503;27;20549;-73
2022/11/23 08:10:32;;;;;;;5.03;2.88;;;;;;;;;;5128153;27;20047;-75
2022/11/23 08:13:11;;;;;;;5.07;2.75;;;;;;;;;;5129072;27;20050;-74
2022/11/23 08:15:41;;;;;;;5.45;2.60;;;;;;;;;;5127890;27;20051;-75
2022/11/23 08:18:14;;;;;;;4.28;2.55;;;;;;;;;;5127207;27;20051;-73
2022/11/23 08:20:44;;;;;;;6.72;2.63;;;;;;;;;;5128027;27;20058;-74
2022/11/23 08:23:13;;;;;;;9.18;3.22;;;;;;;;;;5127593;27;20592;-73
2022/11/23 08:25:43;;;;;;;10.00;3.20;;;;;;;;;;5128094;27;20050;-72
2022/11/23 08:28:13;;;;;;;8.18;2.72;;;;;;;;;;5125955;27;20065;-75
2022/11/23 08:30:43;;;;;;;5.22;3.00;;;;;;;;;;5125491;27;20070;-73
2022/11/23 08:33:14;;;;;;;5.47;2.67;;;;;;;;;;5127276;27;20039;-76
2022/11/23 08:35:43;;;;;;;7.00;2.78;;;;;;;;;;5128130;27;20050;-72
2022/11/23 08:38:13;;;;;;;4.78;2.40;;;;;;;;;;5127405;27;20051;-74
2022/11/23 08:40:43;;;;;;;8.50;3.05;;;;;;;;;;5127569;27;20057;-74
2022/11/23 08:43:12;;;;;;;7.38;2.95;;;;;;;;;;5127220;27;20043;-75
2022/11/23 08:45:42;;;;;;;10.73;2.80;;;;;;;;;;5127209;27;20039;-72
2022/11/23 08:48:12;;;;;;;5.50;2.95;;;;;;;;;;5127343;27;20061;-76
2022/11/23 08:50:43;;;;;;;7.55;3.30;;;;;;;;;;5127398;27;20054;-74
2022/11/23 08:53:13;;;;;;;7.40;3.40;;;;;;;;;;5127219;27;20062;-73
2022/11/23 08:55:43;;;;;;;6.45;3.38;;;;;;;;;;5127209;27;20080;-73
2022/11/23 08:58:13;;;;;;;6.03;3.25;;;;;;;;;;5127500;27;20054;-73
2022/11/23 09:00:43;;;;;;;5.10;2.90;;;;;;;;;;5127075;27;20043;-73
2022/11/23 09:03:12;;;;;;;7.72;2.90;;;;;;;;;;5125440;27;20058;-73
2022/11/23 09:05:42;;;;;;;11.20;6.43;;;;;;;;;;5127551;27;20054;-74
2022/11/23 09:08:12;;;;;;;13.25;4.93;;;;;;;;;;5125810;27;20497;-72
2022/11/23 09:10:42;;;;;;;7.80;4.25;;;;;;;;;;5127144;27;20054;-76
2022/11/23 09:13:12;;;;;;;12.43;4.60;;;;;;;;;;5127214;27;20039;-73
2022/11/23 09:15:42;;;;;;;8.30;3.88;;;;;;;;;;5126855;28;20054;-75
2022/11/23 09:18:11;;;;;;;7.72;3.78;;;;;;;;;;5124844;28;20055;-75
2022/11/23 09:20:42;;;;;;;7.78;4.20;;;;;;;;;;5126831;28;20054;-76
2022/11/23 09:23:14;;;;;;;7.28;4.07;;;;;;;;;;5127365;27;20043;-76
2022/11/23 09:25:47;;;;;;;10.32;5.28;;;;;;;;;;5127336;28;20673;-74
2022/11/23 09:28:19;;;;;;;9.45;4.20;;;;;;;;;;5127126;28;20058;-74
2022/11/23 09:30:50;;;;;;;9.50;4.50;;;;;;;;;;5126972;28;20043;-72
2022/11/23 09:33:20;;;;;;;10.60;4.75;;;;;;;;;;5124836;28;20506;-74
2022/11/23 09:36:01;;;;;;;10.10;4.85;;;;;;;;;;5127076;28;20054;-74
2022/11/23 09:38:31;;;;;;;7.32;4.13;;;;;;;;;;5127838;28;20047;-73
2022/11/23 09:41:40;;;;;;;6.45;3.80;;;;;;;;;;5126715;28;20047;-74
2022/11/23 09:44:16;;;;;;;7.35;4.30;;;;;;;;;;5126464;28;20048;-73
2022/11/23 09:47:06;;;;;;;5.97;3.65;;;;;;;;;;5124728;28;20050;-73
2022/11/23 09:49:47;;;;;;;7.63;3.97;;;;;;;;;;5124852;28;20047;-76
2022/11/23 09:52:18;;;;;;;;;;;;;;;;;;5125840;28;20397;-75
2022/11/23 09:54:56;;;;;;;7.68;4.57;;;;;;;;;;5124500;28;20301;-78
2022/11/23 09:57:30;;;;;;;9.55;4.57;;;;;;;;;;5124628;28;20061;-74
2022/11/23 10:00:04;;;;;;;11.63;5.18;;;;;;;;;;5125529;28;20055;-74
2022/11/23 10:02:39;;;;;;;7.07;4.28;;;;;;;;;;5124368;28;20051;-73
2022/11/23 10:05:17;;;;;;;6.68;3.75;;;;;;;;;;5126318;28;20046;-73
2022/11/23 10:08:14;;;;;;;7.68;4.03;;;;;;;;;;5126580;28;20513;-78
2022/11/23 10:11:02;;;;;;;4.80;3.20;;;;;;;;;;5126498;28;20046;-75
2022/11/23 10:13:44;;;;;;;6.00;3.72;;;;;;;;;;5129978;27;20035;-73
2022/11/23 10:16:22;;;;;;;5.55;2.80;;;;;;;;;;5130613;27;20043;-74
2022/11/23 10:19:18;;;;;;;6.10;3.38;;;;;;;;;;5129242;27;20055;-75
2022/11/23 10:22:00;;;;;;;4.93;3.42;;;;;;;;;;5129759;27;20039;-77
2022/11/23 10:24:43;;;;;;;5.55;3.78;;;;;;;;;;5130337;27;20058;-74
2022/11/23 10:27:19;;;;;;;6.63;3.22;;;;;;;;;;5130251;27;20046;-74
2022/11/23 10:29:53;;;;;;;7.53;3.28;;;;;;;;;;5130329;27;20051;-74
2022/11/23 10:32:34;;;;;;;5.93;3.20;;;;;;;;;;5129259;27;20046;-75
2022/11/23 10:35:37;;;;;;;5.75;3.55;;;;;;;;;;5129938;27;20047;-75
2022/11/23 10:38:21;;;;;;;12.02;4.80;;;;;;;;;;5117000;27;20154;-76
2022/11/23 10:41:09;;;;;;;13.20;4.90;;;;;;;;;;5127543;27;20047;-75
2022/11/23 10:44:03;;;;;;;9.45;4.10;;;;;;;;;;5130273;27;20054;-77
2022/11/23 10:46:38;;;;;;;12.82;5.00;;;;;;;;;;5129662;27;20043;-79
2022/11/23 10:49:27;;;;;;;4.45;1.85;;;;;;;;;;5129691;27;20039;-75
2022/11/23 10:52:28;;;;;;;5.40;1.92;;;;;;;;;;5129668;27;20104;-78
2022/11/23 10:55:01;;;;;;;11.60;2.95;;;;;;;;;;5114345;27;20055;-73
2022/11/23 10:57:43;;;;;;;10.43;3.40;;;;;;;;;;5129475;27;20058;-73
2022/11/23 11:00:15;;;;;;;5.63;2.78;;;;;;;;;;5128054;27;20051;-75
2022/11/23 11:02:56;;;;;;;3.78;1.73;;;;;;;;;;5129970;27;20047;-75
2022/11/23 11:05:48;;;;;;;4.22;1.60;;;;;;;;;;5129255;27;20476;-76
2022/11/23 11:08:59;;;;;;;4.75;1.85;;;;;;;;;;5128840;27;20043;-74
2022/11/23 11:11:38;;;;;;;6.82;1.55;;;;;;;;;;5129311;27;20039;-72
2022/11/23 11:14:22;;;;;;;3.83;1.02;;;;;;;;;;5129588;27;20520;-76
2022/11/23 11:16:52;;;;;;;1.73;1.15;;;;;;;;;;5129367;27;20043;-74
2022/11/23 11:19:32;;;;;;;2.55;1.15;;;;;;;;;;5129202;27;20058;-77
2022/11/23 11:22:24;;;;;;;2.63;1.30;;;;;;;;;;5129531;27;20047;-76
2022/11/23 11:24:55;;;;;;;2.45;1.00;;;;;;;;;;5129099;27;20039;-77
2022/11/23 11:27:28;;;;;;;3.15;1.00;;;;;;;;;;5129130;27;20600;-79
2022/11/23 11:30:21;;;;;;;2.40;1.17;;;;;;;;;;5128532;27;20047;-78
2022/11/23 11:33:12;;;;;;;1.58;0.90;;;;;;;;;;5127163;27;20043;-79
2022/11/23 11:35:47;;;;;;;4.68;1.00;;;;;;;;;;5126979;27;20039;-79
2022/11/23 11:38:17;;;;;;;1.92;1.00;;;;;;;;;;5127799;27;20062;-77
2022/11/23 11:40:51;;;;;;;2.22;0.98;;;;;;;;;;5125784;27;20047;-75
2022/11/23 11:43:30;;;;;;;5.32;1.48;;;;;;;;;;5127167;27;20075;-73
2022/11/23 11:46:14;;;;;;;2.53;1.00;;;;;;;;;;5127601;27;20043;-75
2022/11/23 11:49:12;;;;;;;1.60;0.90;;;;;;;;;;5129118;27;20501;-74
2022/11/23 11:51:54;;;;;;;2.40;0.88;;;;;;;;;;5128559;27;20058;-75
2022/11/23 11:54:48;;;;;;;3.65;1.00;;;;;;;;;;5128702;27;20035;-74
2022/11/23 11:57:54;;;;;;;2.78;1.23;;;;;;;;;;5128544;27;20047;-75
2022/11/23 12:00:25;;;;;;;2.65;1.13;;;;;;;;;;5115979;27;20144;-76
2022/11/23 12:03:19;;;;;;;4.50;1.15;;;;;;;;;;5128088;27;20058;-74
2022/11/23 12:05:52;;;;;;;7.40;2.38;;;;;;;;;;5128178;27;20405;-74
2022/11/23 12:08:30;;;;;;;11.70;1.77;;;;;;;;;;5128204;27;20069;-74
2022/11/23 12:11:05;;;;;;;2.75;1.70;;;;;;;;;;5128370;27;20803;-75
2022/11/23 12:13:38;;;;;;;1.35;0.90;;;;;;;;;;5128426;27;20051;-73
2022/11/23 12:16:31;;;;;;;4.80;0.85;;;;;;;;;;5127700;27;20050;-76
2022/11/23 12:19:16;;;;;;;;;;;;;;;;;;5128322;27;20055;-79
2022/11/23 12:21:52;;;;;;;3.80;0.80;;;;;;;;;;5127943;27;19923;-75
2022/11/23 12:24:48;;;;;;;0.80;0.80;;;;;;;;;;5128739;27;20039;-73
2022/11/23 12:27:18;;;;;;;3.08;0.88;;;;;;;;;;5127789;27;20046;-76
2022/11/23 12:29:53;;;;;;;2.10;0.85;;;;;;;;;;5128451;27;20043;-72
2022/11/23 12:32:51;;;;;;;7.70;1.10;;;;;;;;;;5127913;27;20046;-78
2022/11/23 12:35:45;;;;;;;4.82;1.10;;;;;;;;;;5127172;27;20058;-73
2022/11/23 12:38:39;;;;;;;8.77;4.25;;;;;;;;;;5127473;27;20047;-74
2022/11/23 12:41:17;;;;;;;6.35;1.40;;;;;;;;;;5127616;27;20054;-74
2022/11/23 12:44:20;;;;;;;2.00;1.00;;;;;;;;;;5127376;27;20498;-73
2022/11/23 12:47:27;;;;;;;1.38;1.00;;;;;;;;;;5127619;27;20054;-73
2022/11/23 12:50:11;;;;;;;2.28;0.82;;;;;;;;;;5120362;27;20420;-76
2022/11/23 12:53:13;;;;;;;2.45;1.00;;;;;;;;;;5127530;27;20541;-73
2022/11/23 12:56:06;;;;;;;4.40;0.90;;;;;;;;;;5126101;27;20081;-72
2022/11/23 12:58:38;;;;;;;4.38;0.93;;;;;;;;;;5120947;27;20059;-75
2022/11/23 13:01:25;;;;;;;2.35;0.93;;;;;;;;;;5127346;27;20544;-77
2022/11/23 13:04:28;;;;;;;7.15;0.90;;;;;;;;;;5127504;27;20054;-74
2022/11/23 13:07:22;;;;;;;1.83;0.90;;;;;;;;;;5127339;27;20611;-75
2022/11/23 13:10:48;;;;;;;2.92;1.02;;;;;;;;;;5127142;27;20051;-77
2022/11/23 13:13:54;;;;;;;1.52;1.00;;;;;;;;;;5090616;27;20058;-71
2022/11/23 13:16:54;;;;;;;4.65;1.17;;;;;;;;;;5126892;28;20125;-75
2022/11/23 13:19:57;;;;;;;1.05;1.00;;;;;;;;;;5127066;28;20065;-75
2022/11/23 13:22:30;;;;;;;3.10;0.98;;;;;;;;;;5127347;28;20043;-76
2022/11/23 13:25:12;;;;;;;3.78;1.30;;;;;;;;;;5126724;28;20501;-73
2022/11/23 13:27:54;;;;;;;2.05;1.10;;;;;;;;;;5127401;28;20047;-77
2022/11/23 13:30:41;;;;;;;3.05;1.25;;;;;;;;;;5126752;28;20039;-73
2022/11/23 13:33:36;;;;;;;;;;;;;;;;;;5127421;28;20051;-74
2022/11/23 13:36:10;;;;;;;1.63;1.10;;;;;;;;;;5126827;28;19932;-74
2022/11/23 13:38:47;;;;;;;3.65;1.55;;;;;;;;;;5127033;28;20043;-75
2022/11/23 13:41:34;;;;;;;4.00;1.30;;;;;;;;;;5127002;28;20436;-76
2022/11/23 13:44:11;;;;;;;2.15;1.10;;;;;;;;;;5126894;28;20048;-75
2022/11/23 13:46:42;;;;;;;3.33;1.50;;;;;;;;;;5128666;27;20047;-74
2022/11/23 13:49:39;;;;;;;3.17;1.40;;;;;;;;;;5131377;27;20043;-74
2022/11/23 13:52:25;;;;;;;1.75;1.00;;;;;;;;;;5130664;27;20047;-78
2022/11/23 13:55:10;;;;;;;2.88;1.38;;;;;;;;;;5131196;27;20047;-73
2022/11/23 13:57:43;;;;;;;9.60;3.15;;;;;;;;;;5130756;27;20050;-76
2022/11/23 14:00:49;;;;;;;4.00;1.13;;;;;;;;;;5130275;27;20057;-73
2022/11/23 14:03:51;;;;;;;5.47;1.35;;;;;;;;;;5130623;27;20509;-74
2022/11/23 14:06:51;;;;;;;3.47;1.30;;;;;;;;;;5130382;27;20050;-72
2022/11/23 14:09:43;;;;;;;2.45;0.95;;;;;;;;;;5130948;27;20046;-72
2022/11/23 14:12:35;;;;;;;3.42;1.38;;;;;;;;;;5130346;27;20055;-77
2022/11/23 14:15:15;;;;;;;1.80;1.25;;;;;;;;;;5130299;27;20042;-74
2022/11/23 14:18:15;;;;;;;2.33;1.15;;;;;;;;;;5130497;27;20039;-74
2022/11/23 14:20:52;;;;;;;3.08;1.25;;;;;;;;;;5130102;27;20524;-74
2022/11/23 14:23:59;;;;;;;2.78;1.40;;;;;;;;;;5130340;27;20374;-75
2022/11/23 14:27:01;;;;;;;3.00;1.10;;;;;;;;;;5130432;27;20058;-73
2022/11/23 14:30:25;;;;;;;2.05;1.45;;;;;;;;;;5128791;27;20493;-73
2022/11/23 14:33:16;;;;;;;2.78;1.25;;;;;;;;;;5121550;27;20117;-74
2022/11/23 14:35:56;;;;;;;1.63;0.98;;;;;;;;;;5130000;27;20113;-74
2022/11/23 14:38:57;;;;;;;1.30;1.05;;;;;;;;;;5128724;27;20051;-75
2022/11/23 14:41:31;;;;;;;3.22;1.13;;;;;;;;;;5129848;27;20054;-73
2022/11/23 14:44:03;;;;;;;2.25;1.10;;;;;;;;;;5126788;27;20047;-75
2022/11/23 14:46:33;;;;;;;3.63;1.08;;;;;;;;;;5130040;27;20039;-73
2022/11/23 14:49:06;;;;;;;2.90;1.10;;;;;;;;;;5130630;27;20470;-73
2022/11/23 14:51:42;;;;;;;4.95;1.23;;;;;;;;;;5129480;27;20058;-77
2022/11/23 14:54:15;;;;;;;2.42;0.80;;;;;;;;;;5129683;27;20043;-76
2022/11/23 14:56:47;;;;;;;1.90;1.13;;;;;;;;;;5130026;27;20101;-76
2022/11/23 14:59:17;;;;;;;1.45;1.17;;;;;;;;;;5128698;27;20058;-76
2022/11/23 15:01:51;;;;;;;2.25;1.10;;;;;;;;;;5129929;27;20047;-76
2022/11/23 15:04:33;;;;;;;1.20;1.10;;;;;;;;;;5133152;27;20508;-72
2022/11/23 15:07:10;;;;;;;3.90;1.10;;;;;;;;;;5135883;27;20043;-76
2022/11/23 15:10:16;;;;;;;1.52;1.08;;;;;;;;;;5129714;27;20047;-73
2022/11/23 15:12:48;;;;;;;3.75;1.00;;;;;;;;;;5129022;27;20047;-73
2022/11/23 15:15:21;;;;;;;4.70;1.10;;;;;;;;;;5129244;27;20050;-76
2022/11/23 15:18:02;;;;;;;1.60;1.02;;;;;;;;;;5128996;27;20043;-83
2022/11/23 15:20:35;;;;;;;4.53;0.90;;;;;;;;;;5129445;27;20065;-76
2022/11/23 15:23:05;;;;;;;1.77;0.82;;;;;;;;;;5127316;27;20051;-75
2022/11/23 15:25:35;;;;;;;2.70;1.08;;;;;;;;;;5129157;27;20050;-75
2022/11/23 15:28:16;;;;;;;0.93;0.80;;;;;;;;;;5128523;27;20050;-75
2022/11/23 15:30:46;;;;;;;1.05;0.95;;;;;;;;;;5128936;27;20042;-75
2022/11/23 15:33:22;;;;;;;1.58;1.02;;;;;;;;;;5129080;27;20047;-73
2022/11/23 15:35:54;;;;;;;1.70;1.23;;;;;;;;;;5129264;27;20047;-74
2022/11/23 15:38:24;;;;;;;2.25;1.10;;;;;;;;;;5128798;27;20054;-74
2022/11/23 15:41:03;;;;;;;1.30;1.20;;;;;;;;;;5127981;27;20070;-72
2022/11/23 15:43:34;;;;;;;3.22;1.08;;;;;;;;;;5126561;27;20513;-74